sensor_id;sensor_type;location;lat;lon;timestamp;P1;durP1;ratioP1;P2;durP2;ratioP2
20462;SDS011;10390;53.566;9.980;2022-08-05T00:01:41;5.32;;;4.32;;
20462;SDS011;10390;53.566;9.980;2022-08-05T00:04:08;5.65;;;4.07;;
20462;SDS011;10390;53.566;9.980;2022-08-05T00:06:34;5.55;;;3.88;;
20462;SDS011;10390;53.566;9.980;2022-08-05T00:09:00;5.85;;;4.10;;
20462;SDS011;10390;53.566;9.980;2022-08-05T00:11:26;4.90;;;3.97;;
20462;SDS011;10390;53.566;9.980;2022-08-05T00:13:52;5.57;;;4.22;;
20462;SDS011;10390;53.566;9.980;2022-08-05T00:16:19;5.30;;;3.90;;
20462;SDS011;10390;53.566;9.980;2022-08-05T00:18:47;4.93;;;3.78;;
20462;SDS011;10390;53.566;9.980;2022-08-05T00:21:14;4.43;;;3.78;;
20462;SDS011;10390;53.566;9.980;2022-08-05T00:23:42;5.28;;;4.18;;
20462;SDS011;10390;53.566;9.980;2022-08-05T00:26:10;5.00;;;3.75;;
20462;SDS011;10390;53.566;9.980;2022-08-05T00:28:36;4.85;;;3.80;;
20462;SDS011;10390;53.566;9.980;2022-08-05T00:31:03;5.80;;;4.00;;
20462;SDS011;10390;53.566;9.980;2022-08-05T00:33:30;5.53;;;3.95;;
20462;SDS011;10390;53.566;9.980;2022-08-05T00:35:57;5.35;;;3.75;;
20462;SDS011;10390;53.566;9.980;2022-08-05T00:38:23;4.63;;;3.95;;
20462;SDS011;10390;53.566;9.980;2022-08-05T00:40:58;4.82;;;3.80;;
20462;SDS011;10390;53.566;9.980;2022-08-05T00:43:23;4.90;;;3.88;;
20462;SDS011;10390;53.566;9.980;2022-08-05T00:45:50;5.57;;;3.70;;
20462;SDS011;10390;53.566;9.980;2022-08-05T00:48:17;5.45;;;3.92;;
20462;SDS011;10390;53.566;9.980;2022-08-05T00:50:46;5.28;;;3.88;;
20462;SDS011;10390;53.566;9.980;2022-08-05T00:53:15;5.47;;;3.85;;
20462;SDS011;10390;53.566;9.980;2022-08-05T00:55:44;4.70;;;3.78;;
20462;SDS011;10390;53.566;9.980;2022-08-05T00:58:10;4.57;;;3.53;;
20462;SDS011;10390;53.566;9.980;2022-08-05T01:00:38;4.30;;;3.70;;
20462;SDS011;10390;53.566;9.980;2022-08-05T01:03:06;5.15;;;3.63;;
20462;SDS011;10390;53.566;9.980;2022-08-05T01:05:32;4.97;;;3.67;;
20462;SDS011;10390;53.566;9.980;2022-08-05T01:07:58;5.30;;;3.75;;
20462;SDS011;10390;53.566;9.980;2022-08-05T01:10:28;4.55;;;3.80;;
20462;SDS011;10390;53.566;9.980;2022-08-05T01:13:04;4.82;;;3.58;;
20462;SDS011;10390;53.566;9.980;2022-08-05T01:15:58;4.80;;;3.58;;
20462;SDS011;10390;53.566;9.980;2022-08-05T01:18:28;4.68;;;3.30;;
20462;SDS011;10390;53.566;9.980;2022-08-05T01:24:13;4.70;;;3.50;;
20462;SDS011;10390;53.566;9.980;2022-08-05T01:26:57;4.85;;;3.30;;
20462;SDS011;10390;53.566;9.980;2022-08-05T01:29:42;4.60;;;3.83;;
20462;SDS011;10390;53.566;9.980;2022-08-05T01:32:12;4.57;;;3.50;;
20462;SDS011;10390;53.566;9.980;2022-08-05T01:35:05;4.80;;;3.60;;
20462;SDS011;10390;53.566;9.980;2022-08-05T01:37:40;5.10;;;3.50;;
20462;SDS011;10390;53.566;9.980;2022-08-05T01:40:12;4.90;;;3.50;;
20462;SDS011;10390;53.566;9.980;2022-08-05T01:42:40;4.53;;;3.53;;
20462;SDS011;10390;53.566;9.980;2022-08-05T01:45:08;4.90;;;3.90;;
20462;SDS011;10390;53.566;9.980;2022-08-05T01:47:37;4.47;;;3.40;;
20462;SDS011;10390;53.566;9.980;2022-08-05T01:50:05;4.57;;;3.45;;
20462;SDS011;10390;53.566;9.980;2022-08-05T01:52:36;4.72;;;3.55;;
20462;SDS011;10390;53.566;9.980;2022-08-05T01:55:05;5.57;;;3.85;;
20462;SDS011;10390;53.566;9.980;2022-08-05T01:57:40;4.88;;;3.53;;
20462;SDS011;10390;53.566;9.980;2022-08-05T02:00:10;4.70;;;3.60;;
20462;SDS011;10390;53.566;9.980;2022-08-05T02:02:38;4.53;;;3.60;;
20462;SDS011;10390;53.566;9.980;2022-08-05T02:05:09;4.28;;;3.50;;
20462;SDS011;10390;53.566;9.980;2022-08-05T02:07:38;4.40;;;3.25;;
20462;SDS011;10390;53.566;9.980;2022-08-05T02:10:07;4.70;;;3.53;;
20462;SDS011;10390;53.566;9.980;2022-08-05T02:12:55;4.68;;;3.65;;
20462;SDS011;10390;53.566;9.980;2022-08-05T02:15:27;4.45;;;3.28;;
20462;SDS011;10390;53.566;9.980;2022-08-05T02:18:06;4.20;;;3.25;;
20462;SDS011;10390;53.566;9.980;2022-08-05T02:21:05;4.22;;;3.45;;
20462;SDS011;10390;53.566;9.980;2022-08-05T02:23:55;4.68;;;3.58;;
20462;SDS011;10390;53.566;9.980;2022-08-05T02:26:35;4.72;;;3.50;;
20462;SDS011;10390;53.566;9.980;2022-08-05T02:29:07;4.53;;;3.65;;
20462;SDS011;10390;53.566;9.980;2022-08-05T02:31:36;4.47;;;3.47;;
20462;SDS011;10390;53.566;9.980;2022-08-05T02:34:06;4.22;;;3.30;;
20462;SDS011;10390;53.566;9.980;2022-08-05T02:36:37;4.60;;;3.47;;
20462;SDS011;10390;53.566;9.980;2022-08-05T02:39:07;4.05;;;3.28;;
20462;SDS011;10390;53.566;9.980;2022-08-05T02:41:36;5.07;;;3.25;;
20462;SDS011;10390;53.566;9.980;2022-08-05T02:44:06;4.25;;;3.30;;
20462;SDS011;10390;53.566;9.980;2022-08-05T02:46:35;4.55;;;3.72;;
20462;SDS011;10390;53.566;9.980;2022-08-05T02:49:05;5.15;;;3.85;;
20462;SDS011;10390;53.566;9.980;2022-08-05T02:51:33;5.25;;;4.32;;
20462;SDS011;10390;53.566;9.980;2022-08-05T02:54:00;5.53;;;4.15;;
20462;SDS011;10390;53.566;9.980;2022-08-05T02:56:26;4.40;;;3.58;;
20462;SDS011;10390;53.566;9.980;2022-08-05T02:58:52;4.20;;;3.20;;
20462;SDS011;10390;53.566;9.980;2022-08-05T03:01:21;5.53;;;3.72;;
20462;SDS011;10390;53.566;9.980;2022-08-05T03:03:51;5.38;;;3.70;;
20462;SDS011;10390;53.566;9.980;2022-08-05T03:06:21;4.10;;;3.38;;
20462;SDS011;10390;53.566;9.980;2022-08-05T03:08:47;4.05;;;3.10;;
20462;SDS011;10390;53.566;9.980;2022-08-05T03:11:17;4.97;;;2.83;;
20462;SDS011;10390;53.566;9.980;2022-08-05T03:13:50;4.40;;;3.35;;
20462;SDS011;10390;53.566;9.980;2022-08-05T03:16:18;4.20;;;3.40;;
20462;SDS011;10390;53.566;9.980;2022-08-05T03:18:45;4.97;;;3.50;;
20462;SDS011;10390;53.566;9.980;2022-08-05T03:21:11;4.40;;;3.50;;
20462;SDS011;10390;53.566;9.980;2022-08-05T03:23:38;4.70;;;3.58;;
20462;SDS011;10390;53.566;9.980;2022-08-05T03:26:07;4.78;;;3.50;;
20462;SDS011;10390;53.566;9.980;2022-08-05T03:28:34;4.60;;;3.83;;
20462;SDS011;10390;53.566;9.980;2022-08-05T03:31:01;5.50;;;3.63;;
20462;SDS011;10390;53.566;9.980;2022-08-05T03:33:28;4.75;;;3.75;;
20462;SDS011;10390;53.566;9.980;2022-08-05T03:35:55;4.25;;;3.50;;
20462;SDS011;10390;53.566;9.980;2022-08-05T03:38:25;5.00;;;4.00;;
20462;SDS011;10390;53.566;9.980;2022-08-05T03:40:51;4.50;;;3.35;;
20462;SDS011;10390;53.566;9.980;2022-08-05T03:43:17;4.70;;;3.40;;
20462;SDS011;10390;53.566;9.980;2022-08-05T03:45:44;4.43;;;3.38;;
20462;SDS011;10390;53.566;9.980;2022-08-05T03:48:11;4.32;;;3.75;;
20462;SDS011;10390;53.566;9.980;2022-08-05T03:50:41;4.57;;;3.60;;
20462;SDS011;10390;53.566;9.980;2022-08-05T03:53:14;4.13;;;3.40;;
20462;SDS011;10390;53.566;9.980;2022-08-05T03:56:06;4.70;;;3.67;;
20462;SDS011;10390;53.566;9.980;2022-08-05T03:58:40;4.70;;;3.80;;
20462;SDS011;10390;53.566;9.980;2022-08-05T04:01:09;4.72;;;3.80;;
20462;SDS011;10390;53.566;9.980;2022-08-05T04:03:37;5.00;;;4.28;;
20462;SDS011;10390;53.566;9.980;2022-08-05T04:06:04;4.72;;;4.10;;
20462;SDS011;10390;53.566;9.980;2022-08-05T04:08:31;4.13;;;3.20;;
20462;SDS011;10390;53.566;9.980;2022-08-05T04:10:58;4.57;;;3.60;;
20462;SDS011;10390;53.566;9.980;2022-08-05T04:13:27;4.50;;;3.70;;
20462;SDS011;10390;53.566;9.980;2022-08-05T04:15:55;4.38;;;3.70;;
20462;SDS011;10390;53.566;9.980;2022-08-05T04:18:22;5.20;;;3.97;;
20462;SDS011;10390;53.566;9.980;2022-08-05T04:20:51;4.50;;;3.47;;
20462;SDS011;10390;53.566;9.980;2022-08-05T04:23:19;4.55;;;3.50;;
20462;SDS011;10390;53.566;9.980;2022-08-05T04:25:48;4.63;;;3.58;;
20462;SDS011;10390;53.566;9.980;2022-08-05T04:28:14;4.03;;;3.22;;
20462;SDS011;10390;53.566;9.980;2022-08-05T04:30:39;4.45;;;3.38;;
20462;SDS011;10390;53.566;9.980;2022-08-05T04:33:05;4.68;;;3.85;;
20462;SDS011;10390;53.566;9.980;2022-08-05T04:35:31;4.05;;;3.25;;
20462;SDS011;10390;53.566;9.980;2022-08-05T04:37:56;4.80;;;3.83;;
20462;SDS011;10390;53.566;9.980;2022-08-05T04:40:22;4.15;;;3.25;;
20462;SDS011;10390;53.566;9.980;2022-08-05T04:42:48;4.00;;;3.20;;
20462;SDS011;10390;53.566;9.980;2022-08-05T04:45:14;4.55;;;3.70;;
20462;SDS011;10390;53.566;9.980;2022-08-05T04:47:40;4.10;;;3.40;;
20462;SDS011;10390;53.566;9.980;2022-08-05T04:50:06;4.20;;;3.60;;
20462;SDS011;10390;53.566;9.980;2022-08-05T04:52:32;4.25;;;3.53;;
20462;SDS011;10390;53.566;9.980;2022-08-05T04:54:58;4.32;;;3.63;;
20462;SDS011;10390;53.566;9.980;2022-08-05T04:57:24;4.57;;;3.58;;
20462;SDS011;10390;53.566;9.980;2022-08-05T04:59:50;4.60;;;3.65;;
20462;SDS011;10390;53.566;9.980;2022-08-05T05:02:16;4.30;;;3.20;;
20462;SDS011;10390;53.566;9.980;2022-08-05T05:04:42;4.97;;;3.60;;
20462;SDS011;10390;53.566;9.980;2022-08-05T05:07:07;5.00;;;3.80;;
20462;SDS011;10390;53.566;9.980;2022-08-05T05:09:33;4.43;;;3.45;;
20462;SDS011;10390;53.566;9.980;2022-08-05T05:11:59;4.20;;;3.67;;
20462;SDS011;10390;53.566;9.980;2022-08-05T05:14:25;4.93;;;3.40;;
20462;SDS011;10390;53.566;9.980;2022-08-05T05:16:51;4.00;;;3.30;;
20462;SDS011;10390;53.566;9.980;2022-08-05T05:19:17;5.85;;;3.92;;
20462;SDS011;10390;53.566;9.980;2022-08-05T05:21:43;4.53;;;3.40;;
20462;SDS011;10390;53.566;9.980;2022-08-05T05:24:08;4.97;;;3.65;;
20462;SDS011;10390;53.566;9.980;2022-08-05T05:26:34;4.45;;;3.30;;
20462;SDS011;10390;53.566;9.980;2022-08-05T05:29:00;4.63;;;3.78;;
20462;SDS011;10390;53.566;9.980;2022-08-05T05:31:26;4.32;;;3.67;;
20462;SDS011;10390;53.566;9.980;2022-08-05T05:33:52;4.10;;;3.42;;
20462;SDS011;10390;53.566;9.980;2022-08-05T05:36:17;4.20;;;3.28;;
20462;SDS011;10390;53.566;9.980;2022-08-05T05:38:43;4.07;;;3.35;;
20462;SDS011;10390;53.566;9.980;2022-08-05T05:41:09;4.60;;;3.85;;
20462;SDS011;10390;53.566;9.980;2022-08-05T05:43:34;4.68;;;3.90;;
20462;SDS011;10390;53.566;9.980;2022-08-05T05:46:01;4.70;;;3.88;;
20462;SDS011;10390;53.566;9.980;2022-08-05T05:48:27;5.65;;;4.07;;
20462;SDS011;10390;53.566;9.980;2022-08-05T05:50:53;4.75;;;3.85;;
20462;SDS011;10390;53.566;9.980;2022-08-05T05:53:19;5.20;;;4.28;;
20462;SDS011;10390;53.566;9.980;2022-08-05T05:55:45;4.40;;;3.63;;
20462;SDS011;10390;53.566;9.980;2022-08-05T05:58:11;4.18;;;3.72;;
20462;SDS011;10390;53.566;9.980;2022-08-05T06:00:37;4.60;;;3.75;;
20462;SDS011;10390;53.566;9.980;2022-08-05T06:03:02;4.50;;;3.55;;
20462;SDS011;10390;53.566;9.980;2022-08-05T06:05:28;4.78;;;3.70;;
20462;SDS011;10390;53.566;9.980;2022-08-05T06:07:54;5.13;;;3.50;;
20462;SDS011;10390;53.566;9.980;2022-08-05T06:10:20;4.32;;;3.45;;
20462;SDS011;10390;53.566;9.980;2022-08-05T06:12:46;4.80;;;3.40;;
20462;SDS011;10390;53.566;9.980;2022-08-05T06:15:11;4.20;;;3.50;;
20462;SDS011;10390;53.566;9.980;2022-08-05T06:17:37;4.50;;;3.45;;
20462;SDS011;10390;53.566;9.980;2022-08-05T06:20:03;4.68;;;4.03;;
20462;SDS011;10390;53.566;9.980;2022-08-05T06:22:30;4.30;;;3.30;;
20462;SDS011;10390;53.566;9.980;2022-08-05T06:24:58;4.25;;;3.50;;
20462;SDS011;10390;53.566;9.980;2022-08-05T06:27:25;4.75;;;3.70;;
20462;SDS011;10390;53.566;9.980;2022-08-05T06:29:51;4.32;;;3.63;;
20462;SDS011;10390;53.566;9.980;2022-08-05T06:32:17;4.60;;;3.38;;
20462;SDS011;10390;53.566;9.980;2022-08-05T06:34:43;4.68;;;3.75;;
20462;SDS011;10390;53.566;9.980;2022-08-05T06:37:09;4.32;;;3.30;;
20462;SDS011;10390;53.566;9.980;2022-08-05T06:39:34;4.50;;;3.60;;
20462;SDS011;10390;53.566;9.980;2022-08-05T06:42:03;4.00;;;3.15;;
20462;SDS011;10390;53.566;9.980;2022-08-05T06:44:29;4.40;;;3.70;;
20462;SDS011;10390;53.566;9.980;2022-08-05T06:46:55;4.78;;;3.35;;
20462;SDS011;10390;53.566;9.980;2022-08-05T06:49:21;4.70;;;3.83;;
20462;SDS011;10390;53.566;9.980;2022-08-05T06:51:47;4.55;;;3.90;;
20462;SDS011;10390;53.566;9.980;2022-08-05T06:54:13;4.38;;;3.30;;
20462;SDS011;10390;53.566;9.980;2022-08-05T06:56:39;4.45;;;3.58;;
20462;SDS011;10390;53.566;9.980;2022-08-05T06:59:05;4.30;;;3.53;;
20462;SDS011;10390;53.566;9.980;2022-08-05T07:01:31;4.57;;;3.72;;
20462;SDS011;10390;53.566;9.980;2022-08-05T07:03:57;4.85;;;3.40;;
20462;SDS011;10390;53.566;9.980;2022-08-05T07:06:25;4.63;;;3.70;;
20462;SDS011;10390;53.566;9.980;2022-08-05T07:08:51;4.95;;;3.70;;
20462;SDS011;10390;53.566;9.980;2022-08-05T07:11:17;4.50;;;3.60;;
20462;SDS011;10390;53.566;9.980;2022-08-05T07:13:43;4.90;;;3.60;;
20462;SDS011;10390;53.566;9.980;2022-08-05T07:16:27;4.32;;;3.92;;
20462;SDS011;10390;53.566;9.980;2022-08-05T07:19:12;5.00;;;3.70;;
20462;SDS011;10390;53.566;9.980;2022-08-05T07:21:39;4.88;;;3.70;;
20462;SDS011;10390;53.566;9.980;2022-08-05T07:24:05;4.60;;;3.80;;
20462;SDS011;10390;53.566;9.980;2022-08-05T07:26:32;4.55;;;3.58;;
20462;SDS011;10390;53.566;9.980;2022-08-05T07:28:57;4.32;;;3.75;;
20462;SDS011;10390;53.566;9.980;2022-08-05T07:31:23;4.32;;;3.63;;
20462;SDS011;10390;53.566;9.980;2022-08-05T07:33:49;4.57;;;4.00;;
20462;SDS011;10390;53.566;9.980;2022-08-05T07:36:15;4.78;;;4.25;;
20462;SDS011;10390;53.566;9.980;2022-08-05T07:38:40;4.35;;;3.70;;
20462;SDS011;10390;53.566;9.980;2022-08-05T07:41:07;4.68;;;3.65;;
20462;SDS011;10390;53.566;9.980;2022-08-05T07:43:35;4.43;;;3.67;;
20462;SDS011;10390;53.566;9.980;2022-08-05T07:46:01;4.88;;;4.07;;
20462;SDS011;10390;53.566;9.980;2022-08-05T07:48:27;5.30;;;3.65;;
20462;SDS011;10390;53.566;9.980;2022-08-05T07:50:52;5.07;;;3.55;;
20462;SDS011;10390;53.566;9.980;2022-08-05T07:53:18;4.72;;;3.45;;
20462;SDS011;10390;53.566;9.980;2022-08-05T07:55:44;4.22;;;3.53;;
20462;SDS011;10390;53.566;9.980;2022-08-05T07:58:10;4.88;;;3.60;;
20462;SDS011;10390;53.566;9.980;2022-08-05T08:00:35;4.78;;;3.63;;
20462;SDS011;10390;53.566;9.980;2022-08-05T08:03:01;4.68;;;3.70;;
20462;SDS011;10390;53.566;9.980;2022-08-05T08:05:27;4.78;;;4.25;;
20462;SDS011;10390;53.566;9.980;2022-08-05T08:07:53;5.80;;;4.20;;
20462;SDS011;10390;53.566;9.980;2022-08-05T08:10:20;6.25;;;4.35;;
20462;SDS011;10390;53.566;9.980;2022-08-05T08:12:47;4.85;;;4.15;;
20462;SDS011;10390;53.566;9.980;2022-08-05T08:15:13;4.30;;;3.75;;
20462;SDS011;10390;53.566;9.980;2022-08-05T08:17:39;4.53;;;4.00;;
20462;SDS011;10390;53.566;9.980;2022-08-05T08:20:05;4.60;;;4.07;;
20462;SDS011;10390;53.566;9.980;2022-08-05T08:22:31;4.45;;;3.88;;
20462;SDS011;10390;53.566;9.980;2022-08-05T08:24:57;4.88;;;4.30;;
20462;SDS011;10390;53.566;9.980;2022-08-05T08:27:23;4.75;;;3.78;;
20462;SDS011;10390;53.566;9.980;2022-08-05T08:29:49;5.15;;;3.65;;
20462;SDS011;10390;53.566;9.980;2022-08-05T08:32:15;5.32;;;4.10;;
20462;SDS011;10390;53.566;9.980;2022-08-05T08:34:41;4.50;;;4.00;;
20462;SDS011;10390;53.566;9.980;2022-08-05T08:37:07;4.60;;;4.10;;
20462;SDS011;10390;53.566;9.980;2022-08-05T08:39:33;5.05;;;3.95;;
20462;SDS011;10390;53.566;9.980;2022-08-05T08:41:59;4.93;;;3.80;;
20462;SDS011;10390;53.566;9.980;2022-08-05T08:44:30;4.32;;;3.40;;
20462;SDS011;10390;53.566;9.980;2022-08-05T08:46:57;4.75;;;4.18;;
20462;SDS011;10390;53.566;9.980;2022-08-05T08:49:26;5.15;;;4.40;;
20462;SDS011;10390;53.566;9.980;2022-08-05T08:52:00;5.70;;;4.05;;
20462;SDS011;10390;53.566;9.980;2022-08-05T08:54:36;4.43;;;4.03;;
20462;SDS011;10390;53.566;9.980;2022-08-05T08:57:03;5.40;;;4.00;;
20462;SDS011;10390;53.566;9.980;2022-08-05T08:59:33;4.70;;;4.10;;
20462;SDS011;10390;53.566;9.980;2022-08-05T09:02:10;4.95;;;4.00;;
20462;SDS011;10390;53.566;9.980;2022-08-05T09:05:30;4.95;;;4.45;;
20462;SDS011;10390;53.566;9.980;2022-08-05T09:08:08;5.97;;;4.18;;
20462;SDS011;10390;53.566;9.980;2022-08-05T09:10:43;4.93;;;3.78;;
20462;SDS011;10390;53.566;9.980;2022-08-05T09:13:15;4.28;;;3.45;;
20462;SDS011;10390;53.566;9.980;2022-08-05T09:16:03;4.60;;;3.75;;
20462;SDS011;10390;53.566;9.980;2022-08-05T09:18:41;5.00;;;4.20;;
20462;SDS011;10390;53.566;9.980;2022-08-05T09:21:13;6.50;;;5.55;;
20462;SDS011;10390;53.566;9.980;2022-08-05T09:24:12;8.07;;;7.10;;
20462;SDS011;10390;53.566;9.980;2022-08-05T09:26:57;9.57;;;8.23;;
20462;SDS011;10390;53.566;9.980;2022-08-05T09:29:42;9.02;;;7.90;;
20462;SDS011;10390;53.566;9.980;2022-08-05T09:32:17;10.25;;;8.10;;
20462;SDS011;10390;53.566;9.980;2022-08-05T09:35:11;8.50;;;7.20;;
20462;SDS011;10390;53.566;9.980;2022-08-05T09:37:52;8.20;;;7.10;;
20462;SDS011;10390;53.566;9.980;2022-08-05T09:40:35;7.65;;;6.45;;
20462;SDS011;10390;53.566;9.980;2022-08-05T09:43:25;8.05;;;6.63;;
20462;SDS011;10390;53.566;9.980;2022-08-05T09:46:01;6.70;;;5.45;;
20462;SDS011;10390;53.566;9.980;2022-08-05T09:48:36;6.60;;;5.13;;
20462;SDS011;10390;53.566;9.980;2022-08-05T09:51:14;5.28;;;4.35;;
20462;SDS011;10390;53.566;9.980;2022-08-05T09:54:08;5.38;;;4.28;;
20462;SDS011;10390;53.566;9.980;2022-08-05T09:56:42;4.82;;;4.20;;
20462;SDS011;10390;53.566;9.980;2022-08-05T09:59:17;4.65;;;4.00;;
20462;SDS011;10390;53.566;9.980;2022-08-05T10:01:55;5.95;;;4.53;;
20462;SDS011;10390;53.566;9.980;2022-08-05T10:04:34;6.07;;;4.10;;
20462;SDS011;10390;53.566;9.980;2022-08-05T10:07:09;7.25;;;4.50;;
20462;SDS011;10390;53.566;9.980;2022-08-05T10:09:52;6.05;;;4.47;;
20462;SDS011;10390;53.566;9.980;2022-08-05T10:12:25;6.93;;;4.85;;
20462;SDS011;10390;53.566;9.980;2022-08-05T10:15:24;6.05;;;4.65;;
20462;SDS011;10390;53.566;9.980;2022-08-05T10:21:04;5.47;;;3.83;;
20462;SDS011;10390;53.566;9.980;2022-08-05T10:23:53;4.57;;;3.50;;
20462;SDS011;10390;53.566;9.980;2022-08-05T10:26:25;5.25;;;3.75;;
20462;SDS011;10390;53.566;9.980;2022-08-05T10:29:06;4.88;;;3.60;;
20462;SDS011;10390;53.566;9.980;2022-08-05T10:31:44;5.30;;;3.70;;
20462;SDS011;10390;53.566;9.980;2022-08-05T10:34:20;4.72;;;3.70;;
20462;SDS011;10390;53.566;9.980;2022-08-05T10:36:54;4.90;;;3.70;;
20462;SDS011;10390;53.566;9.980;2022-08-05T10:39:35;5.32;;;4.43;;
20462;SDS011;10390;53.566;9.980;2022-08-05T10:42:12;4.88;;;4.00;;
20462;SDS011;10390;53.566;9.980;2022-08-05T10:44:49;4.70;;;3.72;;
20462;SDS011;10390;53.566;9.980;2022-08-05T10:47:29;4.80;;;3.63;;
20462;SDS011;10390;53.566;9.980;2022-08-05T10:50:09;5.47;;;3.92;;
20462;SDS011;10390;53.566;9.980;2022-08-05T10:52:49;4.90;;;3.33;;
20462;SDS011;10390;53.566;9.980;2022-08-05T10:55:24;4.28;;;3.38;;
20462;SDS011;10390;53.566;9.980;2022-08-05T10:58:10;4.13;;;3.47;;
20462;SDS011;10390;53.566;9.980;2022-08-05T11:00:47;4.03;;;3.50;;
20462;SDS011;10390;53.566;9.980;2022-08-05T11:07:06;4.60;;;3.70;;
20462;SDS011;10390;53.566;9.980;2022-08-05T11:09:52;5.05;;;3.70;;
20462;SDS011;10390;53.566;9.980;2022-08-05T11:15:17;4.35;;;3.50;;
20462;SDS011;10390;53.566;9.980;2022-08-05T11:20:49;4.50;;;3.80;;
20462;SDS011;10390;53.566;9.980;2022-08-05T11:23:52;5.65;;;4.00;;
20462;SDS011;10390;53.566;9.980;2022-08-05T11:26:49;5.38;;;3.67;;
20462;SDS011;10390;53.566;9.980;2022-08-05T11:30:04;4.15;;;3.50;;
20462;SDS011;10390;53.566;9.980;2022-08-05T11:32:37;4.10;;;3.50;;
20462;SDS011;10390;53.566;9.980;2022-08-05T11:41:16;5.68;;;3.65;;
20462;SDS011;10390;53.566;9.980;2022-08-05T11:46:39;5.43;;;3.60;;
20462;SDS011;10390;53.566;9.980;2022-08-05T11:49:11;4.28;;;3.20;;
20462;SDS011;10390;53.566;9.980;2022-08-05T11:51:46;4.93;;;3.28;;
20462;SDS011;10390;53.566;9.980;2022-08-05T11:54:26;4.55;;;3.38;;
20462;SDS011;10390;53.566;9.980;2022-08-05T11:56:56;4.70;;;3.60;;
20462;SDS011;10390;53.566;9.980;2022-08-05T11:59:24;3.95;;;3.17;;
20462;SDS011;10390;53.566;9.980;2022-08-05T12:04:21;5.07;;;3.55;;
20462;SDS011;10390;53.566;9.980;2022-08-05T12:06:47;4.30;;;3.35;;
20462;SDS011;10390;53.566;9.980;2022-08-05T12:09:15;4.00;;;3.58;;
20462;SDS011;10390;53.566;9.980;2022-08-05T12:11:44;4.72;;;3.17;;
20462;SDS011;10390;53.566;9.980;2022-08-05T12:14:11;3.95;;;3.35;;
20462;SDS011;10390;53.566;9.980;2022-08-05T12:16:38;3.92;;;3.28;;
20462;SDS011;10390;53.566;9.980;2022-08-05T12:19:07;4.40;;;3.53;;
20462;SDS011;10390;53.566;9.980;2022-08-05T12:21:47;5.72;;;3.45;;
20462;SDS011;10390;53.566;9.980;2022-08-05T12:24:18;4.35;;;3.38;;
20462;SDS011;10390;53.566;9.980;2022-08-05T12:26:49;4.43;;;2.95;;
20462;SDS011;10390;53.566;9.980;2022-08-05T12:29:21;4.55;;;3.55;;
20462;SDS011;10390;53.566;9.980;2022-08-05T12:31:53;4.68;;;3.58;;
20462;SDS011;10390;53.566;9.980;2022-08-05T12:34:25;6.30;;;3.38;;
20462;SDS011;10390;53.566;9.980;2022-08-05T12:36:58;3.90;;;3.40;;
20462;SDS011;10390;53.566;9.980;2022-08-05T12:39:34;4.03;;;3.40;;
20462;SDS011;10390;53.566;9.980;2022-08-05T12:42:08;4.60;;;3.50;;
20462;SDS011;10390;53.566;9.980;2022-08-05T12:44:36;4.00;;;3.00;;
20462;SDS011;10390;53.566;9.980;2022-08-05T12:47:03;4.25;;;3.28;;
20462;SDS011;10390;53.566;9.980;2022-08-05T12:49:40;4.00;;;3.15;;
20462;SDS011;10390;53.566;9.980;2022-08-05T12:52:12;4.78;;;3.20;;
20462;SDS011;10390;53.566;9.980;2022-08-05T12:54:41;4.95;;;3.38;;
20462;SDS011;10390;53.566;9.980;2022-08-05T12:57:09;4.13;;;3.00;;
20462;SDS011;10390;53.566;9.980;2022-08-05T12:59:47;4.68;;;3.53;;
20462;SDS011;10390;53.566;9.980;2022-08-05T13:02:19;4.28;;;3.42;;
20462;SDS011;10390;53.566;9.980;2022-08-05T13:04:49;3.83;;;2.92;;
20462;SDS011;10390;53.566;9.980;2022-08-05T13:07:20;3.85;;;3.15;;
20462;SDS011;10390;53.566;9.980;2022-08-05T13:09:52;4.15;;;3.53;;
20462;SDS011;10390;53.566;9.980;2022-08-05T13:12:23;4.25;;;3.67;;
20462;SDS011;10390;53.566;9.980;2022-08-05T13:14:57;4.43;;;3.53;;
20462;SDS011;10390;53.566;9.980;2022-08-05T13:17:26;5.25;;;4.05;;
20462;SDS011;10390;53.566;9.980;2022-08-05T13:22:33;5.13;;;4.20;;
20462;SDS011;10390;53.566;9.980;2022-08-05T13:25:03;5.72;;;4.40;;
20462;SDS011;10390;53.566;9.980;2022-08-05T13:30:05;5.55;;;4.65;;
20462;SDS011;10390;53.566;9.980;2022-08-05T13:32:36;7.05;;;5.18;;
20462;SDS011;10390;53.566;9.980;2022-08-05T13:35:03;6.05;;;4.45;;
20462;SDS011;10390;53.566;9.980;2022-08-05T13:37:30;6.38;;;4.63;;
20462;SDS011;10390;53.566;9.980;2022-08-05T13:39:56;6.35;;;4.50;;
20462;SDS011;10390;53.566;9.980;2022-08-05T13:42:23;5.43;;;4.20;;
20462;SDS011;10390;53.566;9.980;2022-08-05T13:44:53;5.25;;;4.20;;
20462;SDS011;10390;53.566;9.980;2022-08-05T13:47:20;5.28;;;4.20;;
20462;SDS011;10390;53.566;9.980;2022-08-05T13:49:47;4.85;;;3.88;;
20462;SDS011;10390;53.566;9.980;2022-08-05T13:52:15;5.15;;;3.60;;
20462;SDS011;10390;53.566;9.980;2022-08-05T13:54:50;4.45;;;3.35;;
20462;SDS011;10390;53.566;9.980;2022-08-05T13:57:17;4.20;;;3.03;;
20462;SDS011;10390;53.566;9.980;2022-08-05T13:59:43;4.53;;;3.53;;
20462;SDS011;10390;53.566;9.980;2022-08-05T14:02:10;4.85;;;3.42;;
20462;SDS011;10390;53.566;9.980;2022-08-05T14:04:38;4.25;;;3.13;;
20462;SDS011;10390;53.566;9.980;2022-08-05T14:07:26;3.97;;;3.38;;
20462;SDS011;10390;53.566;9.980;2022-08-05T14:10:03;4.32;;;3.28;;
20462;SDS011;10390;53.566;9.980;2022-08-05T14:12:38;4.25;;;3.00;;
20462;SDS011;10390;53.566;9.980;2022-08-05T14:15:05;3.80;;;3.05;;
20462;SDS011;10390;53.566;9.980;2022-08-05T14:17:32;5.38;;;3.47;;
20462;SDS011;10390;53.566;9.980;2022-08-05T14:19:58;4.20;;;3.20;;
20462;SDS011;10390;53.566;9.980;2022-08-05T14:22:23;4.75;;;3.58;;
20462;SDS011;10390;53.566;9.980;2022-08-05T14:24:49;4.20;;;3.20;;
20462;SDS011;10390;53.566;9.980;2022-08-05T14:27:15;5.45;;;3.17;;
20462;SDS011;10390;53.566;9.980;2022-08-05T14:29:40;3.97;;;3.20;;
20462;SDS011;10390;53.566;9.980;2022-08-05T14:32:06;4.30;;;3.00;;
20462;SDS011;10390;53.566;9.980;2022-08-05T14:34:32;5.57;;;3.50;;
20462;SDS011;10390;53.566;9.980;2022-08-05T14:36:58;4.32;;;2.92;;
20462;SDS011;10390;53.566;9.980;2022-08-05T14:39:24;4.85;;;3.10;;
20462;SDS011;10390;53.566;9.980;2022-08-05T14:41:50;3.70;;;2.90;;
20462;SDS011;10390;53.566;9.980;2022-08-05T14:44:17;4.25;;;3.10;;
20462;SDS011;10390;53.566;9.980;2022-08-05T14:46:43;4.18;;;3.00;;
20462;SDS011;10390;53.566;9.980;2022-08-05T14:49:09;4.20;;;3.47;;
20462;SDS011;10390;53.566;9.980;2022-08-05T14:51:35;4.55;;;3.08;;
20462;SDS011;10390;53.566;9.980;2022-08-05T14:54:01;4.30;;;2.92;;
20462;SDS011;10390;53.566;9.980;2022-08-05T14:56:28;3.97;;;3.30;;
20462;SDS011;10390;53.566;9.980;2022-08-05T14:58:54;4.60;;;3.08;;
20462;SDS011;10390;53.566;9.980;2022-08-05T15:01:20;4.72;;;3.33;;
20462;SDS011;10390;53.566;9.980;2022-08-05T15:03:46;4.60;;;3.47;;
20462;SDS011;10390;53.566;9.980;2022-08-05T15:06:11;3.95;;;3.10;;
20462;SDS011;10390;53.566;9.980;2022-08-05T15:08:37;4.57;;;3.30;;
20462;SDS011;10390;53.566;9.980;2022-08-05T15:11:03;4.03;;;3.10;;
20462;SDS011;10390;53.566;9.980;2022-08-05T15:13:31;6.50;;;3.10;;
20462;SDS011;10390;53.566;9.980;2022-08-05T15:15:57;4.07;;;3.28;;
20462;SDS011;10390;53.566;9.980;2022-08-05T15:18:23;3.90;;;2.70;;
20462;SDS011;10390;53.566;9.980;2022-08-05T15:20:49;3.97;;;3.15;;
20462;SDS011;10390;53.566;9.980;2022-08-05T15:23:14;4.07;;;2.90;;
20462;SDS011;10390;53.566;9.980;2022-08-05T15:25:40;4.30;;;3.00;;
20462;SDS011;10390;53.566;9.980;2022-08-05T15:28:06;3.95;;;2.70;;
20462;SDS011;10390;53.566;9.980;2022-08-05T15:30:33;4.85;;;3.05;;
20462;SDS011;10390;53.566;9.980;2022-08-05T15:33:01;4.53;;;3.13;;
20462;SDS011;10390;53.566;9.980;2022-08-05T15:35:28;4.13;;;3.17;;
20462;SDS011;10390;53.566;9.980;2022-08-05T15:37:54;4.32;;;3.03;;
20462;SDS011;10390;53.566;9.980;2022-08-05T15:40:20;4.53;;;3.30;;